sensor_id;sensor_type;location;lat;lon;timestamp;P1;durP1;ratioP1;P2;durP2;ratioP2
64065;SDS011;50318;54.760;9.408;2022-12-29T00:00:04;24.35;;;18.70;;
64065;SDS011;50318;54.760;9.408;2022-12-29T00:02:38;29.55;;;20.25;;
64065;SDS011;50318;54.760;9.408;2022-12-29T00:05:05;29.23;;;21.90;;
64065;SDS011;50318;54.760;9.408;2022-12-29T00:07:32;30.23;;;21.45;;
64065;SDS011;50318;54.760;9.408;2022-12-29T00:09:58;31.38;;;23.20;;
64065;SDS011;50318;54.760;9.408;2022-12-29T00:12:24;35.40;;;23.10;;
64065;SDS011;50318;54.760;9.408;2022-12-29T00:14:50;29.83;;;23.45;;
64065;SDS011;50318;54.760;9.408;2022-12-29T00:17:16;32.58;;;22.75;;
64065;SDS011;50318;54.760;9.408;2022-12-29T00:19:43;31.58;;;23.35;;
64065;SDS011;50318;54.760;9.408;2022-12-29T00:22:10;31.67;;;23.45;;
64065;SDS011;50318;54.760;9.408;2022-12-29T00:24:37;29.98;;;22.40;;
64065;SDS011;50318;54.760;9.408;2022-12-29T00:29:30;30.65;;;22.25;;
64065;SDS011;50318;54.760;9.408;2022-12-29T00:31:56;31.52;;;21.67;;
64065;SDS011;50318;54.760;9.408;2022-12-29T00:34:22;30.35;;;22.35;;
64065;SDS011;50318;54.760;9.408;2022-12-29T00:36:48;30.42;;;21.73;;
64065;SDS011;50318;54.760;9.408;2022-12-29T00:39:16;29.33;;;22.02;;
64065;SDS011;50318;54.760;9.408;2022-12-29T00:41:44;27.23;;;20.27;;
64065;SDS011;50318;54.760;9.408;2022-12-29T00:44:10;27.15;;;20.75;;
64065;SDS011;50318;54.760;9.408;2022-12-29T00:46:39;28.05;;;21.10;;
64065;SDS011;50318;54.760;9.408;2022-12-29T00:49:07;26.50;;;19.63;;
64065;SDS011;50318;54.760;9.408;2022-12-29T00:51:35;27.65;;;19.77;;
64065;SDS011;50318;54.760;9.408;2022-12-29T00:54:01;26.23;;;18.75;;
64065;SDS011;50318;54.760;9.408;2022-12-29T00:56:27;28.15;;;19.75;;
64065;SDS011;50318;54.760;9.408;2022-12-29T00:58:54;25.77;;;18.92;;
64065;SDS011;50318;54.760;9.408;2022-12-29T01:01:20;25.33;;;19.17;;
64065;SDS011;50318;54.760;9.408;2022-12-29T01:03:46;22.27;;;18.58;;
64065;SDS011;50318;54.760;9.408;2022-12-29T01:06:12;24.08;;;18.40;;
64065;SDS011;50318;54.760;9.408;2022-12-29T01:08:38;23.50;;;18.30;;
64065;SDS011;50318;54.760;9.408;2022-12-29T01:11:09;25.15;;;17.10;;
64065;SDS011;50318;54.760;9.408;2022-12-29T01:13:36;20.73;;;16.70;;
64065;SDS011;50318;54.760;9.408;2022-12-29T01:16:04;25.65;;;18.77;;
64065;SDS011;50318;54.760;9.408;2022-12-29T01:18:31;25.30;;;19.60;;
64065;SDS011;50318;54.760;9.408;2022-12-29T01:21:03;24.95;;;18.30;;
64065;SDS011;50318;54.760;9.408;2022-12-29T01:23:31;25.08;;;18.30;;
64065;SDS011;50318;54.760;9.408;2022-12-29T01:26:07;24.13;;;18.17;;
64065;SDS011;50318;54.760;9.408;2022-12-29T01:28:35;26.50;;;18.98;;
64065;SDS011;50318;54.760;9.408;2022-12-29T01:31:01;26.23;;;18.98;;
64065;SDS011;50318;54.760;9.408;2022-12-29T01:33:27;24.58;;;18.77;;
64065;SDS011;50318;54.760;9.408;2022-12-29T01:35:54;24.42;;;18.45;;
64065;SDS011;50318;54.760;9.408;2022-12-29T01:38:20;26.70;;;18.83;;
64065;SDS011;50318;54.760;9.408;2022-12-29T01:40:46;23.38;;;18.63;;
64065;SDS011;50318;54.760;9.408;2022-12-29T01:43:13;23.73;;;17.88;;
64065;SDS011;50318;54.760;9.408;2022-12-29T01:45:42;23.35;;;17.85;;
64065;SDS011;50318;54.760;9.408;2022-12-29T01:48:14;23.92;;;19.05;;
64065;SDS011;50318;54.760;9.408;2022-12-29T01:50:52;23.25;;;18.20;;
64065;SDS011;50318;54.760;9.408;2022-12-29T01:53:24;25.45;;;19.55;;
64065;SDS011;50318;54.760;9.408;2022-12-29T01:55:55;22.98;;;18.95;;
64065;SDS011;50318;54.760;9.408;2022-12-29T01:58:26;29.35;;;19.98;;
64065;SDS011;50318;54.760;9.408;2022-12-29T02:00:56;25.33;;;20.65;;
64065;SDS011;50318;54.760;9.408;2022-12-29T02:03:23;26.17;;;20.42;;
64065;SDS011;50318;54.760;9.408;2022-12-29T02:06:34;25.20;;;20.30;;
64065;SDS011;50318;54.760;9.408;2022-12-29T02:08:40;25.45;;;20.30;;
64065;SDS011;50318;54.760;9.408;2022-12-29T02:11:06;27.58;;;20.95;;
64065;SDS011;50318;54.760;9.408;2022-12-29T02:13:34;26.85;;;20.67;;
64065;SDS011;50318;54.760;9.408;2022-12-29T02:16:23;26.77;;;20.75;;
64065;SDS011;50318;54.760;9.408;2022-12-29T02:21:49;30.17;;;22.42;;
64065;SDS011;50318;54.760;9.408;2022-12-29T02:27:21;31.08;;;22.65;;
64065;SDS011;50318;54.760;9.408;2022-12-29T02:38:07;31.85;;;22.20;;
64065;SDS011;50318;54.760;9.408;2022-12-29T02:43:24;26.25;;;20.70;;
64065;SDS011;50318;54.760;9.408;2022-12-29T02:45:56;30.45;;;22.75;;
64065;SDS011;50318;54.760;9.408;2022-12-29T02:48:37;29.45;;;22.20;;
64065;SDS011;50318;54.760;9.408;2022-12-29T02:51:29;29.25;;;21.77;;
64065;SDS011;50318;54.760;9.408;2022-12-29T02:54:03;25.85;;;20.80;;
64065;SDS011;50318;54.760;9.408;2022-12-29T02:56:29;33.08;;;23.63;;
64065;SDS011;50318;54.760;9.408;2022-12-29T02:58:55;29.80;;;23.88;;
64065;SDS011;50318;54.760;9.408;2022-12-29T03:15:00;27.52;;;19.33;;
64065;SDS011;50318;54.760;9.408;2022-12-29T03:17:35;24.98;;;18.30;;
64065;SDS011;50318;54.760;9.408;2022-12-29T03:20:46;20.45;;;16.25;;
64065;SDS011;50318;54.760;9.408;2022-12-29T03:23:49;21.35;;;16.42;;
64065;SDS011;50318;54.760;9.408;2022-12-29T03:26:36;24.35;;;17.33;;
64065;SDS011;50318;54.760;9.408;2022-12-29T03:29:23;20.70;;;16.35;;
64065;SDS011;50318;54.760;9.408;2022-12-29T03:32:11;21.75;;;17.77;;
64065;SDS011;50318;54.760;9.408;2022-12-29T03:34:40;20.95;;;17.50;;
64065;SDS011;50318;54.760;9.408;2022-12-29T03:37:10;19.30;;;17.17;;
64065;SDS011;50318;54.760;9.408;2022-12-29T03:39:38;23.60;;;18.33;;
64065;SDS011;50318;54.760;9.408;2022-12-29T03:42:07;19.77;;;17.45;;
64065;SDS011;50318;54.760;9.408;2022-12-29T03:44:43;21.60;;;17.55;;
64065;SDS011;50318;54.760;9.408;2022-12-29T03:47:13;22.45;;;17.20;;
64065;SDS011;50318;54.760;9.408;2022-12-29T03:49:42;20.48;;;16.48;;
64065;SDS011;50318;54.760;9.408;2022-12-29T03:52:08;23.20;;;17.55;;
64065;SDS011;50318;54.760;9.408;2022-12-29T03:54:40;21.63;;;17.27;;
64065;SDS011;50318;54.760;9.408;2022-12-29T03:57:08;19.13;;;15.77;;
64065;SDS011;50318;54.760;9.408;2022-12-29T03:59:45;21.98;;;16.85;;
64065;SDS011;50318;54.760;9.408;2022-12-29T04:02:12;20.42;;;17.05;;
64065;SDS011;50318;54.760;9.408;2022-12-29T04:04:39;22.60;;;18.00;;
64065;SDS011;50318;54.760;9.408;2022-12-29T04:07:06;20.20;;;18.10;;
64065;SDS011;50318;54.760;9.408;2022-12-29T04:09:33;22.85;;;18.27;;
64065;SDS011;50318;54.760;9.408;2022-12-29T04:11:59;21.40;;;18.27;;
64065;SDS011;50318;54.760;9.408;2022-12-29T04:14:26;22.80;;;18.05;;
64065;SDS011;50318;54.760;9.408;2022-12-29T04:16:53;21.58;;;18.35;;
64065;SDS011;50318;54.760;9.408;2022-12-29T04:19:19;22.83;;;19.75;;
64065;SDS011;50318;54.760;9.408;2022-12-29T04:21:46;23.85;;;18.63;;
64065;SDS011;50318;54.760;9.408;2022-12-29T04:24:13;20.17;;;17.73;;
64065;SDS011;50318;54.760;9.408;2022-12-29T04:26:40;20.80;;;18.52;;
64065;SDS011;50318;54.760;9.408;2022-12-29T04:29:22;23.83;;;18.17;;
64065;SDS011;50318;54.760;9.408;2022-12-29T04:32:10;19.45;;;16.55;;
64065;SDS011;50318;54.760;9.408;2022-12-29T04:34:41;21.00;;;17.73;;
64065;SDS011;50318;54.760;9.408;2022-12-29T04:37:08;20.77;;;17.10;;
64065;SDS011;50318;54.760;9.408;2022-12-29T04:39:34;19.23;;;16.48;;
64065;SDS011;50318;54.760;9.408;2022-12-29T04:42:00;19.38;;;17.33;;
64065;SDS011;50318;54.760;9.408;2022-12-29T04:44:27;18.20;;;15.80;;
64065;SDS011;50318;54.760;9.408;2022-12-29T04:47:08;22.02;;;17.90;;
64065;SDS011;50318;54.760;9.408;2022-12-29T04:49:42;21.33;;;17.27;;
64065;SDS011;50318;54.760;9.408;2022-12-29T04:52:32;19.13;;;16.58;;
64065;SDS011;50318;54.760;9.408;2022-12-29T04:54:59;17.85;;;15.95;;
64065;SDS011;50318;54.760;9.408;2022-12-29T04:57:26;17.33;;;15.07;;
64065;SDS011;50318;54.760;9.408;2022-12-29T04:59:55;17.02;;;14.00;;
64065;SDS011;50318;54.760;9.408;2022-12-29T05:02:22;16.98;;;14.23;;
64065;SDS011;50318;54.760;9.408;2022-12-29T05:04:50;15.77;;;13.02;;
64065;SDS011;50318;54.760;9.408;2022-12-29T05:07:16;17.75;;;13.27;;
64065;SDS011;50318;54.760;9.408;2022-12-29T05:09:44;15.80;;;13.02;;
64065;SDS011;50318;54.760;9.408;2022-12-29T05:12:10;15.48;;;13.80;;
64065;SDS011;50318;54.760;9.408;2022-12-29T05:14:45;16.10;;;13.48;;
64065;SDS011;50318;54.760;9.408;2022-12-29T05:17:11;18.25;;;14.23;;
64065;SDS011;50318;54.760;9.408;2022-12-29T05:19:37;17.30;;;13.82;;
64065;SDS011;50318;54.760;9.408;2022-12-29T05:22:03;16.80;;;12.82;;
64065;SDS011;50318;54.760;9.408;2022-12-29T05:24:31;14.10;;;12.20;;
64065;SDS011;50318;54.760;9.408;2022-12-29T05:26:57;14.05;;;10.90;;
64065;SDS011;50318;54.760;9.408;2022-12-29T05:29:52;12.93;;;7.18;;
64065;SDS011;50318;54.760;9.408;2022-12-29T05:32:19;8.73;;;6.90;;
64065;SDS011;50318;54.760;9.408;2022-12-29T05:34:46;8.73;;;6.20;;
64065;SDS011;50318;54.760;9.408;2022-12-29T05:37:12;10.40;;;5.68;;
64065;SDS011;50318;54.760;9.408;2022-12-29T05:39:40;7.88;;;4.50;;
64065;SDS011;50318;54.760;9.408;2022-12-29T05:42:08;5.45;;;3.15;;
64065;SDS011;50318;54.760;9.408;2022-12-29T05:45:08;5.22;;;2.40;;
64065;SDS011;50318;54.760;9.408;2022-12-29T05:47:54;5.40;;;2.33;;
64065;SDS011;50318;54.760;9.408;2022-12-29T05:50:47;5.75;;;1.90;;
64065;SDS011;50318;54.760;9.408;2022-12-29T05:53:21;6.45;;;2.08;;
64065;SDS011;50318;54.760;9.408;2022-12-29T05:55:48;7.07;;;1.90;;
64065;SDS011;50318;54.760;9.408;2022-12-29T05:58:15;5.93;;;1.90;;
64065;SDS011;50318;54.760;9.408;2022-12-29T06:00:42;5.97;;;1.65;;
64065;SDS011;50318;54.760;9.408;2022-12-29T06:03:09;5.85;;;1.55;;
64065;SDS011;50318;54.760;9.408;2022-12-29T06:05:36;10.27;;;1.75;;
64065;SDS011;50318;54.760;9.408;2022-12-29T06:08:02;5.57;;;1.50;;
64065;SDS011;50318;54.760;9.408;2022-12-29T06:10:29;6.07;;;1.42;;
64065;SDS011;50318;54.760;9.408;2022-12-29T06:13:03;8.15;;;1.88;;
64065;SDS011;50318;54.760;9.408;2022-12-29T06:15:31;6.95;;;2.10;;
64065;SDS011;50318;54.760;9.408;2022-12-29T06:17:58;9.40;;;2.05;;
64065;SDS011;50318;54.760;9.408;2022-12-29T06:20:24;7.47;;;2.20;;
64065;SDS011;50318;54.760;9.408;2022-12-29T06:22:51;8.63;;;2.58;;
64065;SDS011;50318;54.760;9.408;2022-12-29T06:25:18;8.82;;;2.30;;
64065;SDS011;50318;54.760;9.408;2022-12-29T06:27:44;11.20;;;2.55;;
64065;SDS011;50318;54.760;9.408;2022-12-29T06:30:10;11.68;;;2.45;;
64065;SDS011;50318;54.760;9.408;2022-12-29T06:32:38;7.13;;;2.42;;
64065;SDS011;50318;54.760;9.408;2022-12-29T06:35:07;7.30;;;2.47;;
64065;SDS011;50318;54.760;9.408;2022-12-29T06:37:39;9.18;;;3.13;;
64065;SDS011;50318;54.760;9.408;2022-12-29T06:40:06;16.30;;;3.70;;
64065;SDS011;50318;54.760;9.408;2022-12-29T06:42:47;17.13;;;3.92;;
64065;SDS011;50318;54.760;9.408;2022-12-29T06:45:37;11.30;;;3.60;;
64065;SDS011;50318;54.760;9.408;2022-12-29T06:48:05;20.50;;;4.50;;
64065;SDS011;50318;54.760;9.408;2022-12-29T06:50:31;14.50;;;4.03;;
64065;SDS011;50318;54.760;9.408;2022-12-29T06:53:00;16.90;;;4.18;;
64065;SDS011;50318;54.760;9.408;2022-12-29T06:55:26;13.50;;;3.83;;
64065;SDS011;50318;54.760;9.408;2022-12-29T06:57:55;19.70;;;4.60;;
64065;SDS011;50318;54.760;9.408;2022-12-29T07:00:23;16.75;;;4.40;;
64065;SDS011;50318;54.760;9.408;2022-12-29T07:02:50;15.18;;;4.13;;
64065;SDS011;50318;54.760;9.408;2022-12-29T07:05:16;16.08;;;4.38;;
64065;SDS011;50318;54.760;9.408;2022-12-29T07:07:43;21.20;;;5.07;;
64065;SDS011;50318;54.760;9.408;2022-12-29T07:10:09;14.15;;;4.30;;
64065;SDS011;50318;54.760;9.408;2022-12-29T07:12:35;13.68;;;4.57;;
64065;SDS011;50318;54.760;9.408;2022-12-29T07:15:01;17.48;;;5.05;;
64065;SDS011;50318;54.760;9.408;2022-12-29T07:17:28;16.38;;;4.72;;
64065;SDS011;50318;54.760;9.408;2022-12-29T07:19:54;13.65;;;4.65;;
64065;SDS011;50318;54.760;9.408;2022-12-29T07:22:20;14.95;;;4.60;;
64065;SDS011;50318;54.760;9.408;2022-12-29T07:24:46;14.35;;;5.00;;
64065;SDS011;50318;54.760;9.408;2022-12-29T07:27:12;12.45;;;4.45;;
64065;SDS011;50318;54.760;9.408;2022-12-29T07:29:39;12.18;;;3.90;;
64065;SDS011;50318;54.760;9.408;2022-12-29T07:32:05;14.15;;;4.40;;
64065;SDS011;50318;54.760;9.408;2022-12-29T07:34:31;16.02;;;4.18;;
64065;SDS011;50318;54.760;9.408;2022-12-29T07:36:57;16.77;;;3.90;;
64065;SDS011;50318;54.760;9.408;2022-12-29T07:39:23;22.20;;;4.35;;
64065;SDS011;50318;54.760;9.408;2022-12-29T07:41:50;21.90;;;4.10;;
64065;SDS011;50318;54.760;9.408;2022-12-29T07:44:18;22.30;;;4.18;;
64065;SDS011;50318;54.760;9.408;2022-12-29T07:47:14;20.05;;;4.25;;
64065;SDS011;50318;54.760;9.408;2022-12-29T07:49:40;29.55;;;4.50;;
64065;SDS011;50318;54.760;9.408;2022-12-29T07:52:06;22.83;;;4.15;;
64065;SDS011;50318;54.760;9.408;2022-12-29T07:54:32;21.38;;;4.20;;
64065;SDS011;50318;54.760;9.408;2022-12-29T07:56:59;21.38;;;3.83;;
64065;SDS011;50318;54.760;9.408;2022-12-29T07:59:25;22.58;;;3.63;;
64065;SDS011;50318;54.760;9.408;2022-12-29T08:01:51;23.70;;;4.50;;
64065;SDS011;50318;54.760;9.408;2022-12-29T08:04:18;20.58;;;4.10;;
64065;SDS011;50318;54.760;9.408;2022-12-29T08:06:44;23.70;;;4.40;;
64065;SDS011;50318;54.760;9.408;2022-12-29T08:09:10;23.80;;;4.03;;
64065;SDS011;50318;54.760;9.408;2022-12-29T08:11:37;26.50;;;4.05;;
64065;SDS011;50318;54.760;9.408;2022-12-29T08:14:03;20.30;;;4.72;;
64065;SDS011;50318;54.760;9.408;2022-12-29T08:16:29;20.15;;;4.32;;
64065;SDS011;50318;54.760;9.408;2022-12-29T08:18:56;24.50;;;4.00;;
64065;SDS011;50318;54.760;9.408;2022-12-29T08:21:22;30.05;;;4.65;;
64065;SDS011;50318;54.760;9.408;2022-12-29T08:23:48;22.75;;;4.10;;
64065;SDS011;50318;54.760;9.408;2022-12-29T08:26:14;22.02;;;3.50;;
64065;SDS011;50318;54.760;9.408;2022-12-29T08:28:41;28.33;;;4.70;;
64065;SDS011;50318;54.760;9.408;2022-12-29T08:31:07;23.33;;;4.47;;
64065;SDS011;50318;54.760;9.408;2022-12-29T08:33:33;28.60;;;4.72;;
64065;SDS011;50318;54.760;9.408;2022-12-29T08:36:00;26.10;;;4.50;;
64065;SDS011;50318;54.760;9.408;2022-12-29T08:38:27;28.17;;;4.80;;
64065;SDS011;50318;54.760;9.408;2022-12-29T08:40:54;27.83;;;4.82;;
64065;SDS011;50318;54.760;9.408;2022-12-29T08:43:20;27.83;;;5.55;;
64065;SDS011;50318;54.760;9.408;2022-12-29T08:45:47;25.65;;;4.63;;
64065;SDS011;50318;54.760;9.408;2022-12-29T08:48:13;28.45;;;5.00;;
64065;SDS011;50318;54.760;9.408;2022-12-29T08:50:39;29.10;;;4.78;;
64065;SDS011;50318;54.760;9.408;2022-12-29T08:53:05;27.88;;;4.57;;
64065;SDS011;50318;54.760;9.408;2022-12-29T08:55:31;24.25;;;4.28;;
64065;SDS011;50318;54.760;9.408;2022-12-29T08:57:58;28.00;;;4.38;;
64065;SDS011;50318;54.760;9.408;2022-12-29T09:00:24;24.73;;;4.63;;
64065;SDS011;50318;54.760;9.408;2022-12-29T09:02:51;24.85;;;4.60;;
64065;SDS011;50318;54.760;9.408;2022-12-29T09:05:17;19.98;;;4.65;;
64065;SDS011;50318;54.760;9.408;2022-12-29T09:07:43;23.27;;;4.78;;
64065;SDS011;50318;54.760;9.408;2022-12-29T09:10:12;23.42;;;4.53;;
64065;SDS011;50318;54.760;9.408;2022-12-29T09:12:38;30.77;;;4.32;;
64065;SDS011;50318;54.760;9.408;2022-12-29T09:15:05;27.02;;;4.35;;
64065;SDS011;50318;54.760;9.408;2022-12-29T09:17:32;27.50;;;4.75;;
64065;SDS011;50318;54.760;9.408;2022-12-29T09:19:58;28.10;;;5.03;;
64065;SDS011;50318;54.760;9.408;2022-12-29T09:22:24;27.00;;;4.35;;
64065;SDS011;50318;54.760;9.408;2022-12-29T09:24:50;22.05;;;4.00;;
64065;SDS011;50318;54.760;9.408;2022-12-29T09:27:18;26.90;;;4.82;;
64065;SDS011;50318;54.760;9.408;2022-12-29T09:29:45;22.42;;;4.57;;
64065;SDS011;50318;54.760;9.408;2022-12-29T09:32:11;23.83;;;5.00;;
64065;SDS011;50318;54.760;9.408;2022-12-29T09:34:37;22.83;;;4.80;;
64065;SDS011;50318;54.760;9.408;2022-12-29T09:37:03;25.45;;;4.90;;
64065;SDS011;50318;54.760;9.408;2022-12-29T09:39:29;27.52;;;5.30;;
64065;SDS011;50318;54.760;9.408;2022-12-29T09:42:01;27.60;;;5.00;;
64065;SDS011;50318;54.760;9.408;2022-12-29T09:44:43;27.63;;;5.00;;
64065;SDS011;50318;54.760;9.408;2022-12-29T09:47:29;27.02;;;4.70;;
64065;SDS011;50318;54.760;9.408;2022-12-29T09:49:58;25.27;;;4.70;;
64065;SDS011;50318;54.760;9.408;2022-12-29T09:52:32;27.00;;;5.20;;
64065;SDS011;50318;54.760;9.408;2022-12-29T09:55:09;24.80;;;4.65;;
64065;SDS011;50318;54.760;9.408;2022-12-29T09:57:43;32.25;;;5.32;;
64065;SDS011;50318;54.760;9.408;2022-12-29T10:00:11;27.95;;;4.95;;
64065;SDS011;50318;54.760;9.408;2022-12-29T10:16:20;28.85;;;5.43;;
64065;SDS011;50318;54.760;9.408;2022-12-29T10:24:19;22.75;;;4.43;;
64065;SDS011;50318;54.760;9.408;2022-12-29T10:26:47;27.23;;;4.95;;
64065;SDS011;50318;54.760;9.408;2022-12-29T10:29:24;30.15;;;4.72;;
64065;SDS011;50318;54.760;9.408;2022-12-29T10:31:59;29.25;;;5.20;;
64065;SDS011;50318;54.760;9.408;2022-12-29T10:34:34;28.85;;;5.10;;
64065;SDS011;50318;54.760;9.408;2022-12-29T10:37:05;24.35;;;4.75;;
64065;SDS011;50318;54.760;9.408;2022-12-29T10:39:51;29.20;;;5.15;;
64065;SDS011;50318;54.760;9.408;2022-12-29T10:45:10;24.23;;;4.82;;
64065;SDS011;50318;54.760;9.408;2022-12-29T10:47:48;22.95;;;4.32;;
64065;SDS011;50318;54.760;9.408;2022-12-29T10:50:36;26.38;;;5.10;;
64065;SDS011;50318;54.760;9.408;2022-12-29T10:53:04;23.33;;;4.68;;
64065;SDS011;50318;54.760;9.408;2022-12-29T10:55:32;29.08;;;5.30;;
64065;SDS011;50318;54.760;9.408;2022-12-29T10:58:05;20.20;;;4.03;;
64065;SDS011;50318;54.760;9.408;2022-12-29T11:00:35;27.40;;;4.63;;
64065;SDS011;50318;54.760;9.408;2022-12-29T11:05:41;19.42;;;4.13;;
64065;SDS011;50318;54.760;9.408;2022-12-29T11:08:38;22.20;;;5.07;;
64065;SDS011;50318;54.760;9.408;2022-12-29T11:11:11;22.60;;;3.92;;
64065;SDS011;50318;54.760;9.408;2022-12-29T11:13:59;25.42;;;4.70;;
64065;SDS011;50318;54.760;9.408;2022-12-29T11:16:31;22.00;;;4.30;;
64065;SDS011;50318;54.760;9.408;2022-12-29T11:18:59;27.23;;;5.43;;
64065;SDS011;50318;54.760;9.408;2022-12-29T11:24:02;26.63;;;5.35;;
64065;SDS011;50318;54.760;9.408;2022-12-29T11:26:30;34.63;;;5.25;;
64065;SDS011;50318;54.760;9.408;2022-12-29T11:34:23;24.15;;;5.38;;
64065;SDS011;50318;54.760;9.408;2022-12-29T11:36:50;25.83;;;4.80;;
64065;SDS011;50318;54.760;9.408;2022-12-29T11:39:41;30.80;;;4.60;;
64065;SDS011;50318;54.760;9.408;2022-12-29T11:42:15;24.23;;;4.68;;
64065;SDS011;50318;54.760;9.408;2022-12-29T11:44:46;27.38;;;4.85;;
64065;SDS011;50318;54.760;9.408;2022-12-29T11:47:21;22.63;;;4.78;;
64065;SDS011;50318;54.760;9.408;2022-12-29T11:49:49;26.60;;;5.03;;
64065;SDS011;50318;54.760;9.408;2022-12-29T11:52:26;30.92;;;5.63;;
64065;SDS011;50318;54.760;9.408;2022-12-29T11:54:54;29.85;;;5.40;;
64065;SDS011;50318;54.760;9.408;2022-12-29T11:57:22;25.25;;;4.97;;
64065;SDS011;50318;54.760;9.408;2022-12-29T11:59:51;23.92;;;4.78;;
64065;SDS011;50318;54.760;9.408;2022-12-29T12:02:30;24.80;;;4.90;;
64065;SDS011;50318;54.760;9.408;2022-12-29T12:05:07;24.33;;;4.88;;
64065;SDS011;50318;54.760;9.408;2022-12-29T12:07:50;29.73;;;4.97;;
64065;SDS011;50318;54.760;9.408;2022-12-29T12:10:25;23.45;;;4.60;;
64065;SDS011;50318;54.760;9.408;2022-12-29T12:13:06;23.52;;;4.60;;
64065;SDS011;50318;54.760;9.408;2022-12-29T12:15:43;29.38;;;4.93;;
64065;SDS011;50318;54.760;9.408;2022-12-29T12:18:52;30.30;;;5.40;;
64065;SDS011;50318;54.760;9.408;2022-12-29T12:21:25;22.88;;;4.32;;
64065;SDS011;50318;54.760;9.408;2022-12-29T12:27:17;23.80;;;4.10;;
64065;SDS011;50318;54.760;9.408;2022-12-29T12:32:22;27.88;;;5.05;;
64065;SDS011;50318;54.760;9.408;2022-12-29T12:35:05;25.23;;;4.50;;
64065;SDS011;50318;54.760;9.408;2022-12-29T12:51:15;18.42;;;3.78;;
64065;SDS011;50318;54.760;9.408;2022-12-29T12:54:11;19.17;;;4.25;;
64065;SDS011;50318;54.760;9.408;2022-12-29T13:05:25;19.77;;;4.50;;
64065;SDS011;50318;54.760;9.408;2022-12-29T13:16:20;24.25;;;5.43;;
64065;SDS011;50318;54.760;9.408;2022-12-29T13:19:01;35.85;;;5.60;;
64065;SDS011;50318;54.760;9.408;2022-12-29T13:22:09;32.38;;;6.03;;
64065;SDS011;50318;54.760;9.408;2022-12-29T13:24:52;27.55;;;5.28;;
64065;SDS011;50318;54.760;9.408;2022-12-29T13:30:15;25.90;;;5.22;;
64065;SDS011;50318;54.760;9.408;2022-12-29T13:33:00;28.85;;;5.40;;
64065;SDS011;50318;54.760;9.408;2022-12-29T13:39:21;45.35;;;6.88;;
64065;SDS011;50318;54.760;9.408;2022-12-29T13:41:49;41.97;;;7.53;;
64065;SDS011;50318;54.760;9.408;2022-12-29T13:44:20;52.13;;;8.50;;
64065;SDS011;50318;54.760;9.408;2022-12-29T13:46:50;46.22;;;7.85;;
64065;SDS011;50318;54.760;9.408;2022-12-29T13:49:19;47.92;;;8.55;;
64065;SDS011;50318;54.760;9.408;2022-12-29T13:52:11;49.92;;;7.63;;
64065;SDS011;50318;54.760;9.408;2022-12-29T13:57:58;53.92;;;8.80;;
64065;SDS011;50318;54.760;9.408;2022-12-29T14:01:00;58.63;;;8.70;;
64065;SDS011;50318;54.760;9.408;2022-12-29T14:06:23;62.38;;;9.27;;
64065;SDS011;50318;54.760;9.408;2022-12-29T14:08:53;55.00;;;9.02;;
64065;SDS011;50318;54.760;9.408;2022-12-29T14:11:29;49.10;;;8.20;;
64065;SDS011;50318;54.760;9.408;2022-12-29T14:14:22;54.08;;;8.38;;
64065;SDS011;50318;54.760;9.408;2022-12-29T14:16:51;52.95;;;8.85;;
64065;SDS011;50318;54.760;9.408;2022-12-29T14:19:28;56.83;;;8.98;;
64065;SDS011;50318;54.760;9.408;2022-12-29T14:21:57;58.83;;;9.60;;
64065;SDS011;50318;54.760;9.408;2022-12-29T14:26:59;57.17;;;8.73;;
64065;SDS011;50318;54.760;9.408;2022-12-29T14:40:02;40.78;;;7.90;;
64065;SDS011;50318;54.760;9.408;2022-12-29T14:42:43;52.20;;;9.63;;
64065;SDS011;50318;54.760;9.408;2022-12-29T14:57:43;42.13;;;7.25;;
64065;SDS011;50318;54.760;9.408;2022-12-29T15:00:23;32.80;;;6.85;;
64065;SDS011;50318;54.760;9.408;2022-12-29T15:05:35;39.45;;;6.55;;
64065;SDS011;50318;54.760;9.408;2022-12-29T15:08:06;38.95;;;7.90;;
64065;SDS011;50318;54.760;9.408;2022-12-29T15:10:55;41.97;;;7.55;;
64065;SDS011;50318;54.760;9.408;2022-12-29T15:13:24;43.75;;;8.23;;
64065;SDS011;50318;54.760;9.408;2022-12-29T15:15:59;44.42;;;8.48;;
64065;SDS011;50318;54.760;9.408;2022-12-29T15:18:29;48.85;;;8.15;;
64065;SDS011;50318;54.760;9.408;2022-12-29T15:20:57;40.92;;;9.00;;
64065;SDS011;50318;54.760;9.408;2022-12-29T15:23:29;46.10;;;8.55;;
64065;SDS011;50318;54.760;9.408;2022-12-29T15:31:05;45.25;;;9.40;;
64065;SDS011;50318;54.760;9.408;2022-12-29T15:33:38;44.90;;;9.85;;
64065;SDS011;50318;54.760;9.408;2022-12-29T15:36:14;46.78;;;8.63;;
64065;SDS011;50318;54.760;9.408;2022-12-29T15:38:48;38.38;;;7.88;;
64065;SDS011;50318;54.760;9.408;2022-12-29T15:44:16;44.45;;;8.23;;
64065;SDS011;50318;54.760;9.408;2022-12-29T15:46:46;39.45;;;7.45;;
64065;SDS011;50318;54.760;9.408;2022-12-29T15:49:13;38.28;;;7.95;;
64065;SDS011;50318;54.760;9.408;2022-12-29T15:51:40;44.22;;;9.07;;
64065;SDS011;50318;54.760;9.408;2022-12-29T15:54:16;38.88;;;8.18;;
64065;SDS011;50318;54.760;9.408;2022-12-29T15:56:45;40.03;;;7.57;;
64065;SDS011;50318;54.760;9.408;2022-12-29T16:02:11;40.78;;;7.03;;
64065;SDS011;50318;54.760;9.408;2022-12-29T16:04:37;36.75;;;7.07;;
64065;SDS011;50318;54.760;9.408;2022-12-29T16:07:05;40.30;;;6.50;;
64065;SDS011;50318;54.760;9.408;2022-12-29T16:09:49;41.03;;;7.78;;
64065;SDS011;50318;54.760;9.408;2022-12-29T16:12:22;41.27;;;6.77;;
64065;SDS011;50318;54.760;9.408;2022-12-29T16:14:54;40.25;;;7.55;;
64065;SDS011;50318;54.760;9.408;2022-12-29T16:17:27;43.88;;;7.18;;
64065;SDS011;50318;54.760;9.408;2022-12-29T16:22:57;41.42;;;6.53;;
64065;SDS011;50318;54.760;9.408;2022-12-29T16:25:27;33.50;;;6.60;;
64065;SDS011;50318;54.760;9.408;2022-12-29T16:27:57;42.45;;;6.85;;
64065;SDS011;50318;54.760;9.408;2022-12-29T16:30:26;34.53;;;7.05;;
64065;SDS011;50318;54.760;9.408;2022-12-29T16:32:55;34.67;;;5.40;;
64065;SDS011;50318;54.760;9.408;2022-12-29T16:35:25;34.15;;;6.35;;
64065;SDS011;50318;54.760;9.408;2022-12-29T16:40:51;29.80;;;6.25;;
64065;SDS011;50318;54.760;9.408;2022-12-29T16:43:31;35.00;;;7.90;;
64065;SDS011;50318;54.760;9.408;2022-12-29T16:48:35;33.80;;;5.82;;
64065;SDS011;50318;54.760;9.408;2022-12-29T16:51:14;33.67;;;6.25;;
64065;SDS011;50318;54.760;9.408;2022-12-29T16:53:47;32.67;;;6.18;;
64065;SDS011;50318;54.760;9.408;2022-12-29T16:56:17;38.30;;;6.35;;
64065;SDS011;50318;54.760;9.408;2022-12-29T16:58:49;37.28;;;6.03;;
64065;SDS011;50318;54.760;9.408;2022-12-29T17:01:18;26.15;;;6.03;;
64065;SDS011;50318;54.760;9.408;2022-12-29T17:03:48;31.63;;;6.22;;
64065;SDS011;50318;54.760;9.408;2022-12-29T17:06:26;33.20;;;5.78;;
64065;SDS011;50318;54.760;9.408;2022-12-29T17:08:52;33.75;;;6.30;;
64065;SDS011;50318;54.760;9.408;2022-12-29T17:11:22;34.45;;;5.47;;
64065;SDS011;50318;54.760;9.408;2022-12-29T17:13:48;29.58;;;5.07;;
64065;SDS011;50318;54.760;9.408;2022-12-29T17:16:15;29.02;;;6.03;;
64065;SDS011;50318;54.760;9.408;2022-12-29T17:18:41;33.63;;;6.93;;
64065;SDS011;50318;54.760;9.408;2022-12-29T17:21:07;30.98;;;6.88;;
64065;SDS011;50318;54.760;9.408;2022-12-29T17:23:33;34.90;;;6.63;;
64065;SDS011;50318;54.760;9.408;2022-12-29T17:26:00;39.95;;;6.57;;
64065;SDS011;50318;54.760;9.408;2022-12-29T17:28:27;31.05;;;7.53;;
64065;SDS011;50318;54.760;9.408;2022-12-29T17:31:00;32.92;;;6.82;;
64065;SDS011;50318;54.760;9.408;2022-12-29T17:33:29;30.98;;;6.00;;
64065;SDS011;50318;54.760;9.408;2022-12-29T17:36:01;33.03;;;5.80;;